createdAt,value
2023-02-27T00:02:37.420Z,-0.03
2023-02-27T00:07:39.011Z,-0.03
2023-02-27T00:12:41.166Z,-0.06
2023-02-27T00:17:43.351Z,-0.06
2023-02-27T00:22:45.743Z,-0.04
2023-02-27T00:27:47.168Z,-0.06
2023-02-27T00:32:48.586Z,-0.08
2023-02-27T00:37:50.132Z,-0.08
2023-02-27T00:42:52.346Z,-0.12
2023-02-27T00:47:53.851Z,-0.12
2023-02-27T00:52:55.305Z,-0.13
2023-02-27T00:57:56.731Z,-0.13
2023-02-27T01:02:58.159Z,-0.18
2023-02-27T01:07:59.948Z,-0.20
2023-02-27T01:13:01.477Z,-0.20
2023-02-27T01:18:02.991Z,-0.17
2023-02-27T01:23:04.532Z,-0.24
2023-02-27T01:28:05.972Z,-0.28
2023-02-27T01:33:08.841Z,-0.35
2023-02-27T01:38:10.290Z,-0.35
2023-02-27T01:43:19.506Z,-0.38
2023-02-27T01:48:31.571Z,-0.46
2023-02-27T01:53:35.485Z,-0.51
2023-02-27T01:58:37.975Z,-0.48
2023-02-27T02:03:49.010Z,-0.50
2023-02-27T02:08:54.701Z,-0.49
2023-02-27T02:13:58.584Z,-0.52
2023-02-27T02:19:15.907Z,-0.54
2023-02-27T02:24:38.883Z,-0.55
2023-02-27T02:29:55.659Z,-0.48
2023-02-27T02:35:33.336Z,-0.53
2023-02-27T02:40:46.945Z,-0.55
2023-02-27T02:46:13.477Z,-0.55
2023-02-27T02:51:34.902Z,-0.57
2023-02-27T02:56:44.144Z,-0.58
2023-02-27T03:01:52.456Z,-0.58
2023-02-27T03:07:02.722Z,-0.57
2023-02-27T03:12:05.648Z,-0.61
2023-02-27T03:17:14.481Z,-0.63
2023-02-27T03:22:22.764Z,-0.64
2023-02-27T03:27:28.120Z,-0.65
2023-02-27T03:32:43.464Z,-0.66
2023-02-27T03:38:00.012Z,-0.70
2023-02-27T03:43:20.900Z,-0.69
2023-02-27T03:48:22.736Z,-0.70
2023-02-27T03:53:41.008Z,-0.75
2023-02-27T03:58:42.717Z,-0.74
2023-02-27T04:03:52.372Z,-0.74
2023-02-27T04:09:10.987Z,-0.76
2023-02-27T04:14:29.900Z,-0.85
2023-02-27T04:20:01.763Z,-0.83
2023-02-27T04:25:41.145Z,-0.86
2023-02-27T04:31:12.073Z,-0.87
2023-02-27T04:36:49.062Z,-0.83
2023-02-27T04:42:03.345Z,-0.91
2023-02-27T04:47:08.572Z,-0.92
2023-02-27T04:52:19.766Z,-0.96
2023-02-27T04:57:27.892Z,-0.92
2023-02-27T05:02:35.865Z,-0.94
2023-02-27T05:07:43.309Z,-0.94
2023-02-27T05:12:51.900Z,-0.98
2023-02-27T05:18:02.239Z,-1.02
2023-02-27T05:23:26.893Z,-0.97
2023-02-27T05:28:46.751Z,-0.99
2023-02-27T05:33:58.894Z,-1.02
2023-02-27T05:39:04.362Z,-1.05
2023-02-27T05:44:12.549Z,-1.10
2023-02-27T05:49:16.525Z,-1.08
2023-02-27T05:54:44.015Z,-1.11
2023-02-27T05:59:53.860Z,-1.13
2023-02-27T06:04:55.439Z,-1.07
2023-02-27T06:09:56.933Z,-1.08
2023-02-27T06:14:58.410Z,-1.06
2023-02-27T06:19:59.832Z,-1.06
2023-02-27T06:25:01.682Z,-1.06
2023-02-27T06:30:03.886Z,-1.04
2023-02-27T06:35:06.527Z,-0.95
2023-02-27T06:40:14.441Z,-0.92
2023-02-27T06:45:16.933Z,-0.82
2023-02-27T06:50:18.489Z,-0.22
2023-02-27T06:55:22.692Z,0.50
2023-02-27T07:00:24.419Z,1.20
2023-02-27T07:05:26.110Z,1.82
2023-02-27T07:10:27.615Z,2.70
2023-02-27T07:15:29.038Z,3.91
2023-02-27T07:20:30.489Z,5.11
2023-02-27T07:25:31.953Z,5.80
2023-02-27T07:30:33.465Z,5.74
2023-02-27T07:35:35.086Z,5.62
2023-02-27T07:40:36.509Z,5.77
2023-02-27T07:45:38.027Z,6.83
2023-02-27T07:50:39.447Z,7.69
2023-02-27T07:55:40.917Z,8.55
2023-02-27T08:00:42.590Z,9.32
2023-02-27T08:05:44.067Z,9.58
2023-02-27T08:10:45.499Z,9.99
2023-02-27T08:15:46.981Z,10.02
2023-02-27T08:20:48.941Z,9.33
2023-02-27T08:25:50.427Z,8.95
2023-02-27T08:30:51.870Z,7.96
2023-02-27T08:35:54.562Z,6.90
2023-02-27T08:40:56.079Z,7.32
2023-02-27T08:45:57.595Z,7.32
2023-02-27T08:50:59.096Z,7.14
2023-02-27T08:56:00.585Z,7.24
2023-02-27T09:01:03.212Z,7.26
2023-02-27T09:06:05.308Z,6.86
2023-02-27T09:11:07.640Z,6.11
2023-02-27T09:16:09.162Z,6.00
2023-02-27T09:21:10.811Z,5.97
2023-02-27T09:26:12.362Z,5.93
2023-02-27T09:31:13.891Z,6.72
2023-02-27T09:36:16.228Z,7.58
2023-02-27T09:41:39.329Z,7.90
2023-02-27T09:46:40.857Z,8.13
2023-02-27T09:51:42.333Z,8.52
2023-02-27T09:56:56.873Z,8.69
2023-02-27T10:02:08.456Z,8.53
2023-02-27T10:07:17.544Z,8.64
2023-02-27T10:12:33.817Z,8.84
2023-02-27T10:17:50.073Z,8.53
2023-02-27T10:22:54.254Z,8.98
2023-02-27T10:28:01.853Z,8.99
2023-02-27T10:33:12.601Z,9.14
2023-02-27T10:38:32.207Z,8.74
2023-02-27T10:43:33.657Z,8.76
2023-02-27T10:48:35.148Z,8.23
2023-02-27T10:53:36.605Z,8.30
2023-02-27T10:58:38.341Z,8.28
2023-02-27T11:03:42.312Z,7.80
2023-02-27T11:08:43.874Z,8.01
2023-02-27T11:13:45.528Z,7.50
2023-02-27T11:18:49.287Z,7.54
2023-02-27T11:24:00.735Z,7.31
2023-02-27T11:29:18.916Z,7.14
2023-02-27T11:34:30.337Z,7.06
2023-02-27T11:39:36.795Z,6.80
2023-02-27T11:44:50.613Z,6.71
2023-02-27T11:50:04.444Z,6.93
2023-02-27T11:55:15.945Z,6.90
2023-02-27T12:00:36.561Z,6.71
2023-02-27T12:05:39.686Z,6.74
2023-02-27T12:11:12.399Z,6.55
2023-02-27T12:16:32.883Z,6.12
2023-02-27T12:21:41.380Z,5.80
2023-02-27T12:26:50.870Z,6.04
2023-02-27T12:32:14.204Z,6.37
2023-02-27T12:37:24.957Z,6.17
2023-02-27T12:43:21.542Z,6.01
2023-02-27T12:48:51.169Z,5.77
2023-02-27T12:54:41.442Z,6.01
2023-02-27T12:59:52.569Z,6.19
2023-02-27T13:05:35.082Z,6.55
2023-02-27T13:11:02.193Z,6.36
2023-02-27T13:16:14.140Z,6.06
2023-02-27T13:21:25.630Z,5.99
2023-02-27T13:26:36.377Z,5.73
2023-02-27T13:32:04.896Z,5.66
2023-02-27T13:37:09.210Z,5.69
2023-02-27T13:42:26.386Z,5.74
2023-02-27T13:47:31.478Z,5.79
2023-02-27T13:52:36.698Z,5.62
2023-02-27T13:57:38.530Z,5.72
2023-02-27T14:02:57.990Z,5.82
2023-02-27T14:08:04.135Z,5.52
2023-02-27T14:13:26.477Z,5.35
2023-02-27T14:18:54.795Z,5.36
2023-02-27T14:23:56.495Z,5.20
2023-02-27T14:28:59.270Z,4.81
2023-02-27T14:34:05.914Z,4.90
2023-02-27T14:39:17.733Z,5.12
2023-02-27T14:44:21.295Z,5.52
2023-02-27T14:49:29.273Z,5.65
2023-02-27T14:54:30.712Z,5.54
2023-02-27T14:59:44.339Z,5.41
2023-02-27T15:04:46.438Z,5.18
2023-02-27T15:09:49.933Z,5.13
2023-02-27T15:14:54.741Z,5.03
2023-02-27T15:19:58.713Z,4.92
2023-02-27T15:25:03.017Z,4.96
2023-02-27T15:30:05.213Z,4.93
2023-02-27T15:35:18.990Z,4.84
2023-02-27T15:40:29.565Z,4.83
2023-02-27T15:45:33.128Z,4.76
2023-02-27T15:50:37.947Z,4.69
2023-02-27T15:55:46.805Z,4.54
2023-02-27T16:00:51.742Z,4.47
2023-02-27T16:05:53.349Z,4.39
2023-02-27T16:10:54.871Z,4.35
2023-02-27T16:16:05.428Z,4.30
2023-02-27T16:21:13.645Z,4.22
2023-02-27T16:26:20.952Z,4.15
2023-02-27T16:31:30.148Z,4.04
2023-02-27T16:36:32.913Z,3.90
2023-02-27T16:41:35.018Z,3.82
2023-02-27T16:46:36.583Z,3.85
2023-02-27T16:51:38.118Z,3.86
2023-02-27T16:56:40.659Z,3.85
2023-02-27T17:01:42.851Z,3.88
2023-02-27T17:06:44.391Z,3.84
2023-02-27T17:11:45.970Z,3.81
2023-02-27T17:16:47.675Z,3.78
2023-02-27T17:21:49.458Z,3.75
2023-02-27T17:26:52.464Z,3.67
2023-02-27T17:31:54.195Z,3.55
2023-02-27T17:36:55.787Z,3.48
2023-02-27T17:41:57.220Z,3.50
2023-02-27T17:46:58.698Z,3.51
2023-02-27T17:52:00.775Z,3.53
2023-02-27T17:57:02.562Z,3.55
2023-02-27T18:02:03.979Z,3.50
2023-02-27T18:07:05.904Z,3.41
2023-02-27T18:12:07.654Z,3.37
2023-02-27T18:17:12.524Z,3.38
2023-02-27T18:22:16.809Z,3.33
2023-02-27T18:27:18.268Z,3.35
2023-02-27T18:32:19.763Z,3.39
2023-02-27T18:37:21.197Z,3.38
2023-02-27T18:42:22.648Z,3.36
2023-02-27T18:47:24.374Z,3.34
2023-02-27T18:52:26.302Z,3.33
2023-02-27T18:57:27.775Z,3.31
2023-02-27T19:02:29.295Z,3.26
2023-02-27T19:07:30.742Z,3.20
2023-02-27T19:12:32.161Z,3.13
2023-02-27T19:17:33.806Z,3.07
2023-02-27T19:22:35.362Z,2.98
2023-02-27T19:27:37.784Z,2.84
2023-02-27T19:32:39.397Z,2.73
2023-02-27T19:37:42.262Z,2.67
2023-02-27T19:42:44.646Z,2.61
2023-02-27T19:47:46.754Z,2.56
2023-02-27T19:52:48.240Z,2.52
2023-02-27T19:57:49.652Z,2.46
2023-02-27T20:02:51.149Z,2.41
2023-02-27T20:07:53.112Z,2.42
2023-02-27T20:12:54.494Z,2.42
2023-02-27T20:17:55.995Z,2.30
2023-02-27T20:22:58.651Z,2.15
2023-02-27T20:28:00.043Z,2.02
2023-02-27T20:33:01.858Z,1.92
2023-02-27T20:38:03.396Z,1.83
2023-02-27T20:43:04.819Z,1.75
2023-02-27T20:48:07.119Z,1.69
2023-02-27T20:53:08.555Z,1.66
2023-02-27T20:58:09.961Z,1.61
2023-02-27T21:03:11.630Z,1.70
2023-02-27T21:08:13.103Z,1.70
2023-02-27T21:13:14.550Z,1.67
2023-02-27T21:18:15.955Z,1.66
2023-02-27T21:23:17.376Z,1.60
2023-02-27T21:28:19.702Z,1.55
2023-02-27T21:33:22.341Z,1.43
2023-02-27T21:38:23.937Z,1.32
2023-02-27T21:43:25.464Z,1.22
2023-02-27T21:48:27.448Z,1.12
2023-02-27T21:53:29.686Z,1.00
2023-02-27T21:58:31.474Z,0.91
2023-02-27T22:03:35.778Z,0.81
2023-02-27T22:08:38.249Z,0.73
2023-02-27T22:13:39.772Z,0.69
2023-02-27T22:18:41.464Z,0.64
2023-02-27T22:23:44.132Z,0.55
2023-02-27T22:28:45.783Z,0.50
2023-02-27T22:33:49.467Z,0.40
2023-02-27T22:38:51.447Z,0.35
2023-02-27T22:43:53.005Z,0.30
2023-02-27T22:48:59.966Z,0.28
2023-02-27T22:54:03.618Z,0.18
2023-02-27T22:59:05.847Z,0.12
2023-02-27T23:04:08.961Z,0.07
2023-02-27T23:09:22.066Z,0.06
2023-02-27T23:14:23.561Z,0.05
2023-02-27T23:19:25.005Z,0.02
2023-02-27T23:24:26.425Z,0.06
2023-02-27T23:29:27.828Z,0.09
2023-02-27T23:34:40.615Z,0.04
2023-02-27T23:39:51.453Z,-0.04
2023-02-27T23:44:52.892Z,-0.07
2023-02-27T23:49:54.371Z,-0.12
2023-02-27T23:54:55.820Z,-0.18
2023-02-27T23:59:57.272Z,-0.24
